Time;durP1;ratioP1;P1;durP2;ratioP2;P2;SDS_P1;SDS_P2;PMS_P1;PMS_P2;Temp;Humidity;BMP_temperature;BMP_pressure;BME280_temperature;BME280_humidity;BME280_pressure;Samples;Min_cycle;Max_cycle;Signal;HPM_P1;HPM_P2
2021/04/08 00:01:54;;;;;;;7.97;6.13;;;5.00;99.90;;;;;;5070682;28;20301;-71
2021/04/08 00:04:21;;;;;;;8.50;6.93;;;5.00;99.90;;;;;;5070956;28;20231;-71
2021/04/08 00:06:47;;;;;;;7.67;6.20;;;5.00;99.90;;;;;;5070820;28;20207;-71
2021/04/08 00:09:13;;;;;;;11.03;7.03;;;5.00;99.90;;;;;;5070728;28;20226;-71
2021/04/08 00:11:41;;;;;;;15.67;7.80;;;5.00;99.90;;;;;;5070781;28;20253;-71
2021/04/08 00:14:07;;;;;;;11.47;6.67;;;4.90;99.90;;;;;;5071040;28;20578;-71
2021/04/08 00:16:34;;;;;;;8.03;6.83;;;4.90;99.90;;;;;;5070545;28;20210;-71
2021/04/08 00:19:00;;;;;;;10.07;7.17;;;4.80;99.90;;;;;;5070429;28;20206;-72
2021/04/08 00:21:27;;;;;;;7.93;6.50;;;4.90;99.90;;;;;;5070931;28;20206;-71
2021/04/08 00:23:53;;;;;;;7.47;6.67;;;4.90;99.90;;;;;;5070095;28;20202;-71
2021/04/08 00:26:20;;;;;;;10.07;6.10;;;4.70;99.90;;;;;;5070721;28;20202;-71
2021/04/08 00:28:47;;;;;;;6.50;4.63;;;5.30;99.90;;;;;;5070168;28;20206;-71
2021/04/08 00:31:14;;;;;;;8.37;6.10;;;5.10;99.90;;;;;;5070848;28;20234;-71
2021/04/08 00:33:40;;;;;;;6.87;5.63;;;4.50;99.90;;;;;;5070954;28;20264;-70
2021/04/08 00:36:07;;;;;;;9.20;4.27;;;5.60;99.90;;;;;;5070385;28;20205;-70
2021/04/08 00:38:34;;;;;;;7.40;5.43;;;5.10;99.90;;;;;;5070086;28;20577;-71
2021/04/08 00:41:01;;;;;;;6.50;5.03;;;5.40;99.90;;;;;;5070314;28;20260;-70
2021/04/08 00:43:27;;;;;;;8.30;5.37;;;4.10;99.90;;;;;;5070680;28;20221;-70
2021/04/08 00:45:54;;;;;;;6.63;5.47;;;4.60;99.90;;;;;;5069994;28;20213;-70
2021/04/08 00:48:21;;;;;;;7.63;4.57;;;4.60;99.90;;;;;;5070293;28;20214;-71
2021/04/08 00:50:47;;;;;;;9.80;4.43;;;5.30;99.90;;;;;;5069032;28;20230;-72
2021/04/08 00:53:22;;;;;;;6.30;5.17;;;4.60;99.90;;;;;;5070167;28;20210;-71
2021/04/08 00:55:54;;;;;;;11.27;5.33;;;4.60;99.90;;;;;;5069669;28;20209;-70
2021/04/08 00:58:21;;;;;;;8.87;5.13;;;4.50;99.90;;;;;;5070489;28;20198;-70
2021/04/08 01:00:48;;;;;;;7.13;4.07;;;5.00;99.90;;;;;;5069860;28;20248;-70
2021/04/08 01:03:16;;;;;;;5.83;4.63;;;4.50;99.90;;;;;;5070235;28;20212;-72
2021/04/08 01:05:43;;;;;;;6.27;4.20;;;3.80;99.90;;;;;;5069840;28;20811;-72
2021/04/08 01:08:11;;;;;;;5.43;3.40;;;4.40;99.90;;;;;;5070667;28;20581;-71
2021/04/08 01:10:38;;;;;;;4.53;3.70;;;4.40;99.90;;;;;;5070543;28;20222;-71
2021/04/08 01:13:07;;;;;;;8.07;4.47;;;4.50;99.90;;;;;;5069837;28;20206;-71
2021/04/08 01:15:35;;;;;;;6.23;4.37;;;4.50;99.90;;;;;;5070054;28;20591;-71
2021/04/08 01:18:07;;;;;;;5.63;3.87;;;4.40;99.90;;;;;;5069605;28;20221;-71
2021/04/08 01:20:45;;;;;;;4.17;3.27;;;4.40;99.90;;;;;;5069829;28;20221;-71
2021/04/08 01:23:54;;;;;;;6.27;3.87;;;4.50;99.90;;;;;;5070215;28;20229;-71
2021/04/08 01:26:52;;;;;;;6.67;3.33;;;4.60;99.90;;;;;;5008231;28;20234;-71
2021/04/08 01:29:32;;;;;;;4.07;2.93;;;4.40;99.90;;;;;;5033942;28;20210;-71
2021/04/08 01:32:03;;;;;;;7.63;3.83;;;4.30;99.90;;;;;;5069323;28;20590;-71
2021/04/08 01:34:31;;;;;;;4.80;2.93;;;4.10;99.90;;;;;;5069905;28;20209;-71
2021/04/08 01:37:01;;;;;;;3.97;2.73;;;3.80;99.90;;;;;;5069108;28;20213;-71
2021/04/08 01:39:28;;;;;;;3.83;2.77;;;3.90;99.90;;;;;;5069783;28;20693;-71
2021/04/08 01:41:56;;;;;;;6.70;2.70;;;6.00;99.90;;;;;;5069467;28;20217;-69
2021/04/08 01:44:24;;;;;;;5.87;3.07;;;4.20;99.90;;;;;;5069848;28;20203;-70
2021/04/08 01:46:55;;;;;;;6.63;3.10;;;4.30;99.90;;;;;;5069582;28;20225;-69
2021/04/08 01:49:25;;;;;;;5.13;3.33;;;4.10;99.90;;;;;;5069590;28;20271;-70
2021/04/08 01:51:53;;;;;;;3.43;2.60;;;4.00;99.90;;;;;;5069635;28;20374;-70
2021/04/08 01:54:21;;;;;;;4.53;2.67;;;4.10;99.90;;;;;;5069734;28;20209;-70
2021/04/08 01:56:49;;;;;;;3.17;2.60;;;4.10;99.90;;;;;;5069686;28;20206;-71
2021/04/08 01:59:15;;;;;;;7.00;3.43;;;4.20;99.90;;;;;;5069607;28;20229;-71
2021/04/08 02:01:43;;;;;;;8.20;3.73;;;4.20;99.90;;;;;;5070737;28;20608;-71
2021/04/08 02:04:11;;;;;;;5.53;3.40;;;4.00;99.90;;;;;;5072863;28;20582;-70
2021/04/08 02:06:41;;;;;;;5.23;2.70;;;3.90;99.90;;;;;;5073908;28;20202;-69
2021/04/08 02:09:09;;;;;;;3.73;2.83;;;3.80;99.90;;;;;;5073410;28;20210;-69
2021/04/08 02:11:37;;;;;;;6.30;3.67;;;4.10;99.90;;;;;;5072752;28;20237;-69
2021/04/08 02:14:04;;;;;;;4.80;2.47;;;5.60;99.90;;;;;;5072729;28;20221;-69
2021/04/08 02:16:31;;;;;;;5.47;3.53;;;;;;;;;;5073043;28;20629;-70
2021/04/08 02:19:00;;;;;;;6.17;2.80;;;5.20;99.90;;;;;;5072619;28;20324;-69
2021/04/08 02:21:27;;;;;;;4.10;2.73;;;3.10;99.90;;;;;;5073119;28;20228;-69
2021/04/08 02:23:55;;;;;;;3.10;2.50;;;4.00;99.90;;;;;;5072600;28;20212;-70
2021/04/08 02:26:22;;;;;;;2.87;2.40;;;3.80;99.90;;;;;;5073087;28;20202;-70
2021/04/08 02:28:50;;;;;;;8.00;3.27;;;3.80;99.90;;;;;;5058405;28;20206;-70
2021/04/08 02:31:17;;;;;;;4.17;2.63;;;3.80;99.90;;;;;;5071162;28;20226;-70
2021/04/08 02:33:44;;;;;;;2.80;2.27;;;3.90;99.90;;;;;;5072136;28;20258;-70
2021/04/08 02:36:10;;;;;;;6.33;2.30;;;3.90;99.90;;;;;;5072883;28;20670;-70
2021/04/08 02:38:37;;;;;;;5.33;2.40;;;;;;;;;;5072970;28;20216;-70
2021/04/08 02:41:06;;;;;;;2.97;2.03;;;;;;;;;;5072035;28;20713;-70
2021/04/08 02:43:33;;;;;;;3.80;2.17;;;5.00;99.90;;;;;;5072557;28;20588;-70
2021/04/08 02:46:00;;;;;;;5.77;3.07;;;3.70;99.90;;;;;;5071886;28;20238;-70
2021/04/08 02:48:27;;;;;;;5.53;3.20;;;3.60;99.90;;;;;;5072216;28;20229;-70
2021/04/08 02:50:54;;;;;;;5.33;2.83;;;;;;;;;;5072328;28;20226;-70
2021/04/08 02:53:26;;;;;;;6.23;3.30;;;3.70;99.90;;;;;;5072281;28;20206;-71
2021/04/08 02:55:57;;;;;;;4.77;2.57;;;3.70;99.90;;;;;;5072379;28;20214;-70
2021/04/08 02:58:28;;;;;;;5.37;2.87;;;3.60;99.90;;;;;;5072344;28;20248;-70
2021/04/08 03:00:59;;;;;;;6.27;3.00;;;3.60;99.90;;;;;;5072221;28;20280;-70
2021/04/08 03:03:33;;;;;;;4.37;2.77;;;3.60;99.90;;;;;;5071989;28;20217;-70
2021/04/08 03:06:04;;;;;;;3.73;2.63;;;3.60;99.90;;;;;;5071785;28;20210;-71
2021/04/08 03:08:32;;;;;;;5.27;2.77;;;3.50;99.90;;;;;;5072147;28;20631;-70
2021/04/08 03:11:01;;;;;;;5.40;3.87;;;3.40;99.90;;;;;;5071799;28;20241;-70
2021/04/08 03:13:31;;;;;;;4.40;2.40;;;3.40;99.90;;;;;;5071298;28;20210;-69
2021/04/08 03:16:00;;;;;;;4.93;2.87;;;3.40;99.90;;;;;;5071988;28;20221;-70
2021/04/08 03:18:27;;;;;;;5.40;2.87;;;3.40;99.90;;;;;;5071821;28;20213;-70
2021/04/08 03:20:54;;;;;;;5.93;2.57;;;3.40;99.90;;;;;;5071641;28;20271;-70
2021/04/08 03:23:24;;;;;;;5.17;2.70;;;3.40;99.90;;;;;;5071768;28;20209;-71
2021/04/08 03:25:51;;;;;;;4.03;3.00;;;;;;;;;;5071810;28;20210;-71
2021/04/08 03:28:19;;;;;;;5.93;2.70;;;3.60;99.90;;;;;;5071967;28;20206;-71
2021/04/08 03:30:47;;;;;;;7.00;2.60;;;3.40;99.90;;;;;;5071101;28;20237;-71
2021/04/08 03:33:15;;;;;;;3.80;2.37;;;3.40;99.90;;;;;;5071765;28;20271;-71
2021/04/08 03:35:44;;;;;;;3.37;2.80;;;3.50;99.90;;;;;;5071307;28;20209;-71
2021/04/08 03:38:11;;;;;;;7.63;2.53;;;3.50;99.90;;;;;;5071863;28;20213;-71
2021/04/08 03:40:38;;;;;;;5.80;2.70;;;3.50;99.90;;;;;;5071422;28;20213;-72
2021/04/08 03:43:06;;;;;;;4.27;2.17;;;3.30;99.90;;;;;;5071259;28;20279;-72
2021/04/08 03:45:32;;;;;;;5.70;2.63;;;3.30;99.90;;;;;;5071461;28;20209;-72
2021/04/08 03:48:01;;;;;;;4.40;2.60;;;;;;;;;;5070814;28;20224;-72
2021/04/08 03:50:29;;;;;;;3.37;2.33;;;;;;;;;;5071168;28;20621;-72
2021/04/08 03:52:57;;;;;;;5.90;1.80;;;3.50;99.90;;;;;;5070777;28;20206;-72
2021/04/08 03:55:27;;;;;;;5.27;2.47;;;3.40;99.90;;;;;;5071191;28;20206;-71
2021/04/08 03:57:54;;;;;;;3.33;2.40;;;3.30;99.90;;;;;;5070497;28;20205;-72
2021/04/08 04:00:22;;;;;;;5.13;2.63;;;3.20;99.90;;;;;;5071201;28;20202;-72
2021/04/08 04:02:49;;;;;;;3.47;2.20;;;3.20;99.90;;;;;;5070406;28;20685;-72
2021/04/08 04:05:16;;;;;;;6.87;3.20;;;3.20;99.90;;;;;;5071285;28;20209;-71
2021/04/08 04:07:49;;;;;;;4.97;2.60;;;3.20;99.90;;;;;;5070706;28;20686;-71
2021/04/08 04:10:17;;;;;;;4.90;2.77;;;3.00;99.90;;;;;;5071167;28;20298;-72
2021/04/08 04:12:44;;;;;;;8.30;2.50;;;3.00;99.90;;;;;;5070766;28;20237;-72
2021/04/08 04:15:12;;;;;;;3.40;2.87;;;3.00;99.90;;;;;;5070712;28;20217;-71
2021/04/08 04:17:38;;;;;;;4.77;3.03;;;2.90;99.90;;;;;;5071071;28;20210;-70
2021/04/08 04:20:07;;;;;;;6.03;3.30;;;2.90;99.90;;;;;;5070321;28;20202;-71
2021/04/08 04:22:34;;;;;;;5.73;3.10;;;2.90;99.90;;;;;;5071045;28;20217;-71
2021/04/08 04:25:01;;;;;;;3.23;2.40;;;3.00;99.90;;;;;;5069389;28;20210;-71
2021/04/08 04:27:27;;;;;;;3.73;2.83;;;3.10;99.90;;;;;;5070842;28;20205;-71
2021/04/08 04:29:54;;;;;;;3.30;2.37;;;3.10;99.90;;;;;;5069918;28;20259;-71
2021/04/08 04:32:20;;;;;;;3.50;2.60;;;3.00;99.90;;;;;;5070521;28;20763;-71
2021/04/08 04:34:47;;;;;;;3.33;2.70;;;3.00;99.90;;;;;;5069487;28;20213;-69
2021/04/08 04:37:15;;;;;;;5.13;2.50;;;2.90;99.90;;;;;;5070486;28;20205;-71
2021/04/08 04:39:44;;;;;;;3.83;2.60;;;3.00;99.90;;;;;;5070430;28;20210;-71
2021/04/08 04:42:11;;;;;;;4.97;2.77;;;3.00;99.90;;;;;;5071031;28;20216;-71
2021/04/08 04:44:38;;;;;;;3.73;2.70;;;3.00;99.90;;;;;;5056694;28;20213;-72
2021/04/08 04:47:05;;;;;;;8.83;2.93;;;2.90;99.90;;;;;;5070027;28;20270;-71
2021/04/08 04:49:32;;;;;;;4.87;2.77;;;2.80;99.90;;;;;;5070016;28;20217;-71
2021/04/08 04:51:58;;;;;;;5.80;2.90;;;2.80;99.90;;;;;;5069850;28;20234;-71
2021/04/08 04:54:25;;;;;;;4.00;2.73;;;2.80;99.90;;;;;;5070327;28;20217;-71
2021/04/08 04:56:52;;;;;;;5.33;3.20;;;2.80;99.90;;;;;;5069637;28;20208;-71
2021/04/08 04:59:19;;;;;;;4.97;2.77;;;2.80;99.90;;;;;;5070048;28;20218;-71
2021/04/08 05:01:45;;;;;;;4.47;3.20;;;2.90;99.90;;;;;;5070128;28;20267;-71
2021/04/08 05:04:12;;;;;;;3.73;2.57;;;2.90;99.90;;;;;;5070188;28;20664;-71
2021/04/08 05:06:38;;;;;;;4.50;2.63;;;3.00;99.90;;;;;;5070261;28;20213;-71
2021/04/08 05:09:05;;;;;;;4.33;2.90;;;3.00;99.90;;;;;;5070045;28;20208;-71
2021/04/08 05:11:33;;;;;;;5.93;3.33;;;3.00;99.90;;;;;;5069687;28;20286;-71
2021/04/08 05:14:01;;;;;;;4.47;2.60;;;2.90;99.90;;;;;;5069827;28;20598;-72
2021/04/08 05:16:27;;;;;;;3.87;2.57;;;2.90;99.90;;;;;;5069973;28;20217;-72
2021/04/08 05:18:54;;;;;;;4.90;2.53;;;2.90;99.90;;;;;;5069388;28;20212;-72
2021/04/08 05:21:21;;;;;;;8.13;3.30;;;2.90;99.90;;;;;;5068981;28;20660;-73
2021/04/08 05:23:47;;;;;;;5.23;3.10;;;3.00;99.90;;;;;;5068929;28;20212;-72
2021/04/08 05:26:14;;;;;;;3.97;2.73;;;2.90;99.90;;;;;;5069697;28;20581;-72
2021/04/08 05:28:40;;;;;;;4.10;3.23;;;2.90;99.90;;;;;;5069529;28;20205;-72
2021/04/08 05:31:08;;;;;;;4.80;3.37;;;2.80;99.90;;;;;;5069708;28;20352;-71
2021/04/08 05:33:35;;;;;;;3.80;2.80;;;2.80;99.90;;;;;;5069858;28;20655;-71
2021/04/08 05:36:01;;;;;;;4.07;3.37;;;2.90;99.90;;;;;;5071044;28;21010;-71
2021/04/08 05:38:28;;;;;;;4.70;3.07;;;2.90;99.90;;;;;;5073883;28;20213;-71
2021/04/08 05:40:54;;;;;;;6.90;4.53;;;2.90;99.90;;;;;;5071934;28;20248;-71
2021/04/08 05:43:21;;;;;;;6.80;3.43;;;2.90;99.90;;;;;;5073722;28;20552;-71
2021/04/08 05:45:47;;;;;;;6.33;3.37;;;2.90;99.90;;;;;;5073434;28;20207;-71
2021/04/08 05:48:15;;;;;;;6.43;3.47;;;3.00;99.90;;;;;;5073696;28;20226;-71
2021/04/08 05:50:41;;;;;;;8.70;4.23;;;2.80;99.90;;;;;;5073768;28;20206;-70
2021/04/08 05:53:08;;;;;;;4.10;3.63;;;2.90;99.90;;;;;;5073794;28;20202;-71
2021/04/08 05:55:34;;;;;;;7.37;3.53;;;3.00;99.90;;;;;;5073361;28;20208;-71
2021/04/08 05:58:01;;;;;;;6.53;3.33;;;3.00;99.90;;;;;;5072856;28;20206;-71
2021/04/08 06:00:27;;;;;;;7.47;3.53;;;3.20;99.90;;;;;;5073640;28;20236;-71
2021/04/08 06:02:55;;;;;;;8.77;4.03;;;3.30;99.90;;;;;;5072850;28;20263;-71
2021/04/08 06:05:22;;;;;;;6.03;3.90;;;3.10;99.90;;;;;;5073680;28;20203;-71
2021/04/08 06:07:49;;;;;;;6.17;3.70;;;3.20;99.90;;;;;;5072638;28;20206;-71
2021/04/08 06:10:15;;;;;;;7.63;3.73;;;3.20;99.90;;;;;;5073353;28;20210;-71
2021/04/08 06:12:43;;;;;;;5.47;3.83;;;3.40;99.90;;;;;;5073296;28;20233;-71
2021/04/08 06:15:11;;;;;;;7.40;4.20;;;3.50;99.90;;;;;;5073299;28;20247;-70
2021/04/08 06:17:38;;;;;;;6.30;4.00;;;3.60;99.90;;;;;;5072733;28;20205;-70
2021/04/08 06:20:06;;;;;;;4.93;3.87;;;3.70;99.90;;;;;;5072207;28;20206;-70
2021/04/08 06:22:33;;;;;;;4.73;4.23;;;3.80;99.90;;;;;;5073100;28;20240;-70
2021/04/08 06:25:00;;;;;;;6.57;4.13;;;3.90;99.90;;;;;;5072584;28;20213;-71
2021/04/08 06:27:28;;;;;;;7.07;4.27;;;3.80;99.90;;;;;;5072896;28;20206;-71
2021/04/08 06:29:55;;;;;;;6.80;4.63;;;4.00;99.90;;;;;;5072369;28;20255;-71
2021/04/08 06:32:22;;;;;;;9.37;4.07;;;4.00;99.90;;;;;;5072720;28;20728;-71
2021/04/08 06:34:48;;;;;;;6.03;3.80;;;4.20;99.90;;;;;;5072377;28;20232;-71
2021/04/08 06:37:15;;;;;;;4.87;3.97;;;4.10;99.90;;;;;;5072151;28;20688;-71
2021/04/08 06:39:45;;;;;;;10.50;4.63;;;4.20;99.90;;;;;;5072607;28;20206;-71
2021/04/08 06:42:14;;;;;;;7.57;4.87;;;4.40;99.90;;;;;;5073431;28;20213;-71
2021/04/08 06:44:43;;;;;;;5.63;4.10;;;4.40;99.90;;;;;;5072904;28;20213;-71
2021/04/08 06:47:10;;;;;;;7.00;4.60;;;4.50;99.90;;;;;;5071900;28;20214;-71
2021/04/08 06:49:42;;;;;;;7.40;3.53;;;4.60;99.90;;;;;;5072185;28;20210;-70
2021/04/08 06:52:10;;;;;;;7.83;4.03;;;4.50;99.90;;;;;;5072604;28;20306;-70
2021/04/08 06:54:38;;;;;;;7.23;4.33;;;4.60;99.90;;;;;;5072158;28;20210;-71
2021/04/08 06:57:06;;;;;;;5.37;3.63;;;4.60;99.90;;;;;;5072688;28;20207;-70
2021/04/08 06:59:33;;;;;;;4.10;3.27;;;4.70;99.90;;;;;;5072121;28;20213;-71
2021/04/08 07:02:00;;;;;;;5.53;3.57;;;5.00;99.90;;;;;;5071874;28;20236;-70
2021/04/08 07:04:26;;;;;;;5.17;3.27;;;5.10;99.90;;;;;;5071991;28;20248;-71
2021/04/08 07:06:53;;;;;;;6.63;3.33;;;5.50;99.90;;;;;;5071758;28;20569;-71
2021/04/08 07:09:19;;;;;;;7.40;3.60;;;5.50;99.90;;;;;;5072420;28;20210;-71
2021/04/08 07:11:46;;;;;;;5.10;3.20;;;5.60;99.90;;;;;;5071632;28;20287;-71
2021/04/08 07:14:15;;;;;;;4.90;2.97;;;5.60;99.90;;;;;;5072382;28;20205;-71
2021/04/08 07:16:42;;;;;;;4.00;3.50;;;5.70;99.90;;;;;;5071588;28;20206;-71
2021/04/08 07:19:08;;;;;;;4.87;3.27;;;5.90;99.90;;;;;;5072311;28;20213;-71
2021/04/08 07:21:36;;;;;;;5.13;2.73;;;6.20;99.90;;;;;;5071601;28;20214;-71
2021/04/08 07:24:10;;;;;;;5.17;3.03;;;6.20;99.90;;;;;;5071655;28;20210;-71
2021/04/08 07:26:54;;;;;;;6.87;3.27;;;6.40;99.90;;;;;;5071787;28;20594;-72
2021/04/08 07:29:22;;;;;;;5.37;3.23;;;6.40;99.90;;;;;;5071937;28;20198;-72
2021/04/08 07:31:49;;;;;;;5.33;3.43;;;6.60;99.90;;;;;;5071095;28;20705;-72
2021/04/08 07:34:34;;;;;;;4.17;3.50;;;6.90;99.90;;;;;;5071858;28;20360;-72
2021/04/08 07:37:00;;;;;;;8.07;3.40;;;6.90;99.90;;;;;;5068668;28;20205;-71
2021/04/08 07:39:34;;;;;;;12.73;3.50;;;7.10;99.90;;;;;;5067941;28;20198;-72
2021/04/08 07:42:02;;;;;;;6.90;3.13;;;7.20;99.90;;;;;;5069141;28;20206;-71
2021/04/08 07:44:30;;;;;;;4.17;2.93;;;7.40;99.90;;;;;;5068126;28;20206;-71
2021/04/08 07:46:56;;;;;;;5.67;3.17;;;7.40;99.90;;;;;;5070370;28;20206;-72
2021/04/08 07:49:28;;;;;;;8.40;3.53;;;7.60;99.90;;;;;;5070705;28;20209;-70
2021/04/08 07:51:55;;;;;;;10.80;3.23;;;7.90;99.90;;;;;;5069797;28;20229;-73
2021/04/08 07:54:22;;;;;;;6.53;3.20;;;7.80;99.90;;;;;;5068942;28;20243;-73
2021/04/08 07:56:49;;;;;;;6.97;2.67;;;7.90;99.90;;;;;;5070520;28;20198;-72
2021/04/08 07:59:17;;;;;;;5.90;3.00;;;8.10;99.90;;;;;;5064475;28;20198;-74
2021/04/08 08:01:46;;;;;;;4.17;2.87;;;8.30;99.90;;;;;;5070110;28;20876;-74
2021/04/08 08:04:24;;;;;;;8.80;3.70;;;8.50;99.90;;;;;;5066895;28;20207;-78
2021/04/08 08:06:52;;;;;;;6.37;2.80;;;8.60;99.90;;;;;;5067352;28;20206;-75
2021/04/08 08:09:24;;;;;;;4.80;3.03;;;8.80;99.90;;;;;;5062949;28;20257;-74
2021/04/08 08:11:52;;;;;;;5.47;3.63;;;8.80;99.90;;;;;;5070660;28;20229;-73
2021/04/08 08:14:32;;;;;;;4.77;3.73;;;8.80;99.90;;;;;;5069704;28;20688;-70
2021/04/08 08:17:04;;;;;;;5.27;3.10;;;9.10;99.90;;;;;;5061640;28;20562;-74
2021/04/08 08:19:32;;;;;;;6.57;3.73;;;9.40;99.90;;;;;;5070653;28;20210;-72
2021/04/08 08:21:58;;;;;;;4.73;3.73;;;9.50;99.90;;;;;;5069966;28;20210;-72
2021/04/08 08:24:25;;;;;;;6.77;3.73;;;9.50;99.90;;;;;;5069137;28;20594;-72
2021/04/08 08:26:52;;;;;;;5.40;2.87;;;9.90;99.90;;;;;;5069304;28;20256;-72
2021/04/08 08:29:21;;;;;;;7.73;3.97;;;10.20;99.90;;;;;;5063948;28;20628;-74
2021/04/08 08:31:49;;;;;;;4.93;4.03;;;10.40;99.90;;;;;;5066924;28;20233;-73
2021/04/08 08:34:18;;;;;;;4.33;3.20;;;10.80;99.90;;;;;;5066267;28;20202;-72
2021/04/08 08:36:47;;;;;;;5.00;3.20;;;11.20;99.90;;;;;;5068496;28;20256;-73
2021/04/08 08:39:17;;;;;;;4.87;3.33;;;11.20;99.90;;;;;;5070057;28;20669;-72
2021/04/08 08:41:45;;;;;;;12.03;3.53;;;11.60;99.90;;;;;;5070329;28;20206;-73
2021/04/08 08:44:14;;;;;;;5.47;3.50;;;12.10;99.90;;;;;;5067859;28;20202;-73
2021/04/08 08:46:46;;;;;;;4.10;2.60;;;13.10;99.90;;;;;;5068071;28;20228;-73
2021/04/08 08:49:14;;;;;;;6.87;2.87;;;13.40;99.90;;;;;;5067593;28;20209;-74
2021/04/08 08:51:42;;;;;;;9.00;3.90;;;13.00;99.90;;;;;;5069324;28;20226;-73
2021/04/08 08:54:10;;;;;;;7.17;2.33;;;12.70;99.90;;;;;;5069745;28;20202;-73
2021/04/08 08:56:37;;;;;;;3.73;2.37;;;13.10;99.90;;;;;;5068741;28;20214;-73
2021/04/08 08:59:04;;;;;;;6.07;2.57;;;13.00;99.90;;;;;;5069426;28;20264;-72
2021/04/08 09:01:31;;;;;;;3.00;1.73;;;13.70;99.90;;;;;;5068260;28;20296;-73
2021/04/08 09:03:58;;;;;;;4.17;2.13;;;14.60;99.90;;;;;;5064759;28;20666;-72
2021/04/08 09:06:26;;;;;;;5.63;2.37;;;14.30;99.90;;;;;;5069995;28;20210;-75
2021/04/08 09:08:56;;;;;;;5.67;2.17;;;14.20;99.90;;;;;;5069807;28;20210;-77
2021/04/08 09:11:26;;;;;;;4.70;2.30;;;14.90;99.90;;;;;;5074217;28;20226;-73
2021/04/08 09:13:54;;;;;;;3.17;2.87;;;14.50;99.90;;;;;;5076442;28;20692;-74
2021/04/08 09:16:21;;;;;;;4.45;2.10;;;14.20;99.90;;;;;;5076692;28;20202;-74
2021/04/08 09:19:02;;;;;;;7.93;2.88;;;14.60;99.90;;;;;;5063533;28;20255;-74
2021/04/08 09:21:46;;;;;;;5.22;2.42;;;14.40;99.90;;;;;;5076357;28;20210;-73
2021/04/08 09:24:17;;;;;;;3.20;2.22;;;15.30;99.90;;;;;;5075351;28;20217;-76
2021/04/08 09:26:48;;;;;;;5.38;3.33;;;15.10;99.90;;;;;;5076201;28;20209;-78
2021/04/08 09:29:42;;;;;;;3.40;2.40;;;15.70;99.90;;;;;;5073039;28;20673;-76
2021/04/08 09:32:31;;;;;;;5.20;2.72;;;16.40;99.90;;;;;;5074491;28;20717;-78
2021/04/08 09:35:16;;;;;;;5.05;2.53;;;16.30;99.90;;;;;;5075925;28;20665;-77
2021/04/08 09:38:19;;;;;;;5.95;2.65;;;16.40;99.90;;;;;;5076553;28;20308;-77
2021/04/08 09:40:50;;;;;;;3.03;1.67;;;16.50;99.90;;;;;;5072573;28;20201;-77
2021/04/08 09:43:19;;;;;;;2.67;2.28;;;16.60;99.90;;;;;;5076504;28;20214;-78
2021/04/08 09:45:50;;;;;;;3.33;1.88;;;17.40;99.90;;;;;;5075162;28;20662;-79
2021/04/08 09:48:19;;;;;;;2.55;1.85;;;17.70;99.90;;;;;;5075463;28;20255;-77
2021/04/08 09:50:47;;;;;;;3.90;2.50;;;19.00;99.90;;;;;;5070949;28;20205;-75
2021/04/08 09:53:14;;;;;;;3.50;1.63;;;20.80;99.90;;;;;;5072295;28;20233;-79
2021/04/08 09:55:48;;;;;;;5.22;1.70;;;20.90;99.90;;;;;;5073826;28;20202;-84
2021/04/08 09:58:21;;;;;;;2.53;2.15;;;20.80;99.90;;;;;;5076858;28;20206;-82
2021/04/08 10:00:47;;;;;;;5.75;2.63;;;21.30;99.90;;;;;;5074128;28;20244;-80
2021/04/08 10:03:27;;;;;;;3.47;1.80;;;21.60;99.90;;;;;;5076404;28;20217;-85
2021/04/08 10:05:53;;;;;;;3.05;2.10;;;21.30;99.90;;;;;;5075397;28;20288;-74
2021/04/08 10:08:22;;;;;;;4.82;1.67;;;20.90;99.90;;;;;;5074455;28;20224;-79
2021/04/08 10:10:50;;;;;;;4.88;2.90;;;21.10;99.90;;;;;;5069680;28;20690;-78
2021/04/08 10:13:25;;;;;;;3.38;2.45;;;21.10;99.90;;;;;;5073245;28;20237;-81
2021/04/08 10:15:53;;;;;;;2.95;1.70;;;20.60;99.90;;;;;;5074706;28;20209;-82
2021/04/08 10:18:21;;;;;;;3.80;2.53;;;21.90;99.90;;;;;;5073981;28;20198;-80
2021/04/08 10:20:49;;;;;;;3.83;1.85;;;21.60;99.90;;;;;;5075414;28;20202;-82
2021/04/08 10:23:30;;;;;;;3.95;1.67;;;20.50;99.90;;;;;;5072511;28;20206;-82
2021/04/08 10:25:58;;;;;;;5.88;2.08;;;20.30;99.90;;;;;;5072630;28;20422;-80
2021/04/08 10:28:26;;;;;;;3.25;1.73;;;21.20;99.90;;;;;;5071079;28;20202;-76
2021/04/08 10:30:52;;;;;;;2.63;1.90;;;21.70;99.90;;;;;;5070994;28;20206;-79
2021/04/08 10:33:20;;;;;;;3.75;1.73;;;21.80;99.90;;;;;;5071988;28;20230;-79
2021/04/08 10:35:47;;;;;;;17.13;11.30;;;18.00;99.90;;;;;;5072478;28;20206;-78
2021/04/08 10:38:14;;;;;;;3.70;1.77;;;16.70;99.90;;;;;;5073155;28;20260;-80
2021/04/08 10:40:50;;;;;;;4.65;2.30;;;16.00;99.90;;;;;;5072112;28;20623;-81
2021/04/08 10:43:18;;;;;;;4.30;2.05;;;15.40;99.90;;;;;;5063490;28;20236;-77
2021/04/08 10:45:53;;;;;;;6.13;2.75;;;15.30;99.90;;;;;;5072269;28;20213;-83
2021/04/08 10:48:23;;;;;;;2.58;2.38;;;15.20;99.90;;;;;;5072823;28;20596;-84
2021/04/08 10:50:51;;;;;;;4.28;1.48;;;15.30;99.90;;;;;;5069685;28;20251;-78
2021/04/08 10:53:19;;;;;;;3.13;1.70;;;15.10;99.90;;;;;;5071813;28;20241;-79
2021/04/08 10:55:46;;;;;;;7.95;2.42;;;15.40;99.90;;;;;;5064613;28;20298;-81
2021/04/08 10:58:24;;;;;;;6.28;2.47;;;15.50;99.90;;;;;;5063120;28;20206;-80
2021/04/08 11:00:52;;;;;;;2.55;1.77;;;15.80;99.90;;;;;;5066082;28;20202;-82
2021/04/08 11:03:18;;;;;;;6.00;2.97;;;16.10;99.90;;;;;;5072353;28;20202;-76
2021/04/08 11:05:44;;;;;;;3.70;2.05;;;15.90;99.90;;;;;;5072366;28;20209;-81
2021/04/08 11:08:12;;;;;;;3.15;2.30;;;15.80;99.90;;;;;;5068210;28;20236;-79
2021/04/08 11:10:38;;;;;;;3.70;2.28;;;15.70;99.90;;;;;;5059416;28;20221;-79
2021/04/08 11:13:05;;;;;;;11.57;2.97;;;15.80;99.90;;;;;;5070505;28;20260;-79
2021/04/08 11:15:33;;;;;;;6.03;2.85;;;15.80;99.90;;;;;;5072264;28;20601;-74
2021/04/08 11:18:10;;;;;;;4.47;2.85;;;15.60;99.90;;;;;;5066971;28;20241;-74
2021/04/08 11:20:39;;;;;;;2.97;2.22;;;16.00;99.90;;;;;;5070768;28;20210;-75
2021/04/08 11:23:07;;;;;;;3.88;2.88;;;16.00;99.90;;;;;;5075315;28;20209;-75
2021/04/08 11:25:34;;;;;;;5.20;3.20;;;16.20;99.90;;;;;;5066845;28;20206;-75
2021/04/08 11:28:03;;;;;;;8.80;3.55;;;16.20;99.90;;;;;;5070560;28;20210;-74
2021/04/08 11:30:37;;;;;;;7.03;3.30;;;16.30;99.90;;;;;;5069117;28;20202;-75
2021/04/08 11:33:06;;;;;;;5.25;2.83;;;16.50;99.90;;;;;;5063673;28;20232;-75
2021/04/08 11:35:37;;;;;;;6.55;3.33;;;16.10;99.90;;;;;;5070742;28;20259;-75
2021/04/08 11:38:10;;;;;;;6.68;3.30;;;16.10;99.90;;;;;;5067841;28;20209;-75
2021/04/08 11:40:37;;;;;;;8.88;3.00;;;15.80;99.90;;;;;;5064123;28;20206;-75
2021/04/08 11:43:19;;;;;;;3.10;2.78;;;16.30;99.90;;;;;;5074087;28;20209;-74
2021/04/08 11:45:46;;;;;;;5.57;2.83;;;16.00;99.90;;;;;;5070757;28;20692;-77
2021/04/08 11:48:13;;;;;;;4.22;3.03;;;16.00;99.90;;;;;;5069338;28;20206;-79
2021/04/08 11:50:42;;;;;;;5.50;3.17;;;16.50;99.90;;;;;;5070582;28;20221;-74
2021/04/08 11:53:10;;;;;;;8.13;3.42;;;16.00;99.90;;;;;;5061914;28;20234;-74
2021/04/08 11:55:38;;;;;;;7.65;2.30;;;16.30;99.90;;;;;;5070541;28;20214;-72
2021/04/08 11:58:05;;;;;;;4.28;3.72;;;16.10;99.90;;;;;;5070339;28;20641;-73
2021/04/08 12:00:32;;;;;;;5.80;3.33;;;16.30;99.90;;;;;;5070177;28;20685;-72
2021/04/08 12:03:14;;;;;;;5.63;3.33;;;17.00;99.90;;;;;;5068366;28;20207;-72
2021/04/08 12:05:41;;;;;;;5.40;4.22;;;16.60;99.90;;;;;;5067033;28;20217;-73
2021/04/08 12:08:08;;;;;;;9.90;4.47;;;16.90;99.90;;;;;;5069454;28;20582;-73
2021/04/08 12:10:35;;;;;;;5.70;3.08;;;15.90;99.90;;;;;;5066454;28;20218;-75
2021/04/08 12:13:04;;;;;;;4.88;3.33;;;16.90;99.90;;;;;;5067059;28;20234;-73
2021/04/08 12:15:45;;;;;;;6.28;2.97;;;16.90;99.90;;;;;;5069894;28;20251;-74
2021/04/08 12:18:24;;;;;;;6.25;3.78;;;17.10;99.90;;;;;;5065280;28;20552;-74
2021/04/08 12:20:52;;;;;;;7.90;4.15;;;17.00;99.90;;;;;;5068998;28;20198;-73
2021/04/08 12:23:21;;;;;;;4.45;2.53;;;16.90;99.90;;;;;;5070884;28;20210;-73
2021/04/08 12:25:49;;;;;;;4.82;3.20;;;16.90;99.90;;;;;;5070594;28;20208;-74
2021/04/08 12:28:17;;;;;;;5.78;2.90;;;17.00;99.90;;;;;;5070870;28;20206;-75
2021/04/08 12:30:47;;;;;;;6.10;3.88;;;17.20;99.90;;;;;;5070330;28;20210;-75
2021/04/08 12:33:18;;;;;;;5.47;3.38;;;17.00;99.90;;;;;;5070619;28;20244;-74
2021/04/08 12:35:46;;;;;;;5.82;3.17;;;17.30;99.90;;;;;;5070444;28;20255;-73
2021/04/08 12:38:13;;;;;;;4.82;3.42;;;17.20;99.90;;;;;;5070864;28;20202;-75
2021/04/08 12:40:39;;;;;;;7.63;3.60;;;17.40;99.90;;;;;;5069777;28;20213;-74
2021/04/08 12:43:06;;;;;;;7.90;4.03;;;17.50;99.90;;;;;;5070730;28;20252;-75
2021/04/08 12:45:33;;;;;;;5.93;3.35;;;17.60;99.90;;;;;;5069876;28;20674;-75
2021/04/08 12:48:00;;;;;;;10.05;4.20;;;17.60;99.90;;;;;;5069781;28;20232;-75
2021/04/08 12:50:26;;;;;;;6.55;3.38;;;17.70;99.90;;;;;;5070524;28;20231;-76
2021/04/08 12:52:54;;;;;;;4.30;3.78;;;17.70;99.90;;;;;;5069912;28;20230;-73
2021/04/08 12:55:23;;;;;;;6.93;3.70;;;17.80;99.90;;;;;;5070493;28;20206;-75
2021/04/08 12:57:49;;;;;;;5.13;3.20;;;17.40;99.90;;;;;;5069732;28;20674;-75
2021/04/08 13:00:17;;;;;;;5.90;4.07;;;17.80;99.90;;;;;;5069458;28;20202;-78
2021/04/08 13:02:43;;;;;;;4.18;3.35;;;17.80;99.90;;;;;;5070057;28;20206;-75
2021/04/08 13:05:10;;;;;;;6.28;3.67;;;17.80;99.90;;;;;;5070638;28;20205;-75